Steilacoom, Washington
Current Conditions -  °F | °C
As of 6:58 PM on Wednesday 22 Oct 2014 (Local Time) from KTCM Reporting Station
Overcast Overcast  
Wind Chill: 55°   Ceiling: 7000
Heat Index: 55°   Visibility: 10mi
Dew Point: 54°   Wind: 9mph
Humidity: 96%   Direction: 150°SSE
Pressure: 29.58"   Gusts: NA
Location:  47.17°N, 122.59°W
Report Text: KTCM 230158Z AUTO 15008KT 10SM BKN070 OVC090 13/12 A2958 RMK AO2 RAE0129DZB0115E0117 SLP020 P0001 T01290123 $
Loading
Personal Weather Stations






























Interactive Weather Map New forecast layout! Learn more

10-Day Weather Forecast

Advertisements
Track Severe Weather on mobile